Latest Weather Observations for Bombala AWS

IDN60801

Issued at 8:32 pm EDT Saturday 3 December 2016 (issued every 30 minutes, with the page automatically refreshed every 10 minutes)

About weather observations | Map of weather stations | Latest weather observations for NSW | Other Formats
Station Details ID: 070328 Name: BOMBALA AWS Lat: -37.00 Lon: 149.23 Height: 760.5 m
Data from the previous 72 hours. | See also: Recent months at Bombala AWS
Date/Time
EDT
Temp
°C
App
Temp
°C
Dew
Point
°C
Rel
Hum
%
Delta-T
°C
Wind Press
QNH
hPa
Press
MSL
hPa
Rain since
9am
mm
Dir  Spd
km/h
Gust
km/h
Spd
kts
Gust
kts
03/08:30pm 13.1 12.9 13.1 100 0.0 E 6 9 3 5 1017.5 1015.1 0.0
03/08:00pm 13.2 13.0 13.0 99 0.1 ENE 6 9 3 5 1017.2 1014.8 0.0
03/07:30pm 13.5 12.8 13.3 99 0.1 ENE 9 15 5 8 1017.1 1014.7 0.0
03/07:00pm 13.9 13.3 13.6 98 0.2 ENE 9 13 5 7 1017.0 1014.6 0.0
03/06:30pm 13.7 12.6 13.2 97 0.3 ENE 11 17 6 9 1016.5 1014.2 0.0
03/06:00pm 14.0 12.5 13.2 95 0.5 ENE 13 24 7 13 1016.2 1013.8 0.0
03/05:30pm 14.7 13.3 13.4 92 0.8 ENE 13 20 7 11 1016.1 1013.7 0.0
03/05:00pm 15.4 13.9 13.2 87 1.3 ENE 13 20 7 11 1016.1 1013.7 0.0
03/04:30pm 15.2 12.4 12.5 84 1.5 ENE 19 26 10 14 1015.9 1013.5 0.0
03/04:00pm 16.8 14.9 12.9 78 2.3 E 15 24 8 13 1015.8 1013.4 0.0
03/03:30pm 17.4 15.7 13.5 78 2.3 ENE 15 24 8 13 1015.7 1013.3 0.0
03/03:00pm 17.2 14.4 13.1 77 2.4 NE 20 30 11 16 1015.7 1013.3 0.0
03/02:30pm 18.0 15.6 13.9 77 2.4 NE 19 28 10 15 1015.8 1013.4 0.0
03/02:00pm 18.0 15.3 13.5 75 2.6 ENE 20 30 11 16 1015.8 1013.4 0.0
03/01:30pm 18.4 15.8 13.3 72 3.0 ENE 19 28 10 15 1015.6 1013.2 0.0
03/01:00pm 19.0 17.1 14.1 73 2.9 ENE 17 22 9 12 1016.0 1013.6 0.0
03/12:30pm 18.5 16.4 13.6 73 2.9 ENE 17 24 9 13 1016.2 1013.8 0.0
03/12:00pm 18.3 16.5 13.2 72 3.0 NE 15 22 8 12 1016.3 1013.9 0.0
03/11:30am 18.7 16.9 13.3 71 3.2 ENE 15 22 8 12 1016.3 1013.9 0.0
03/11:00am 16.6 14.6 12.8 78 2.2 E 15 22 8 12 1016.4 1014.1 0.0
03/10:30am 16.8 15.1 13.5 81 1.9 ENE 15 20 8 11 1016.8 1014.4 0.0
03/10:00am 16.2 16.0 14.7 91 0.9 ENE 9 17 5 9 1016.8 1014.4 0.0
03/09:30am 14.7 14.0 14.2 97 0.3 E 11 15 6 8 1016.9 1014.5 0.0
03/09:00am 14.1 13.7 14.1 100 0.0 E 9 13 5 7 1017.0 1014.6 0.2
03/08:30am 13.0 12.6 13.0 100 0.0 ENE 7 11 4 6 1017.2 1014.8 0.2
03/08:00am 12.9 12.5 12.9 100 0.0 E 7 9 4 5 1016.9 1014.5 0.2
03/07:30am 11.9 11.4 11.9 100 0.0 SE 6 7 3 4 1016.8 1014.4 0.2
03/07:00am 11.4 10.7 11.4 100 0.0 SE 6 7 3 4 1016.6 1014.3 0.2
03/06:30am 10.7 9.8 10.7 100 0.0 SE 6 7 3 4 1016.2 1013.8 0.2
03/06:00am 10.5 9.4 10.5 100 0.0 SE 7 9 4 5 1015.8 1013.4 0.2
03/05:30am 10.5 9.6 10.5 100 0.0 SE 6 9 3 5 1015.6 1013.2 0.2
03/05:00am 10.4 9.8 10.4 100 0.0 SE 4 7 2 4 1015.4 1013.0 0.2
03/04:30am 10.3 9.3 10.3 100 0.0 SE 6 7 3 4 1015.4 1013.0 0.2
03/04:00am 10.2 9.5 10.2 100 0.0 ESE 4 6 2 3 1015.6 1013.2 0.2
03/03:30am 10.1 9.4 10.1 100 0.0 ESE 4 6 2 3 1015.7 1013.3 0.2
03/03:00am 10.1 9.0 10.1 100 0.0 ESE 6 7 3 4 1015.8 1013.4 0.2
03/02:30am 10.0 8.3 10.0 100 0.0 SE 9 13 5 7 1016.0 1013.6 0.0
03/02:00am 9.9 8.2 9.9 100 0.0 SE 9 13 5 7 1016.3 1013.9 0.0
03/01:30am 9.9 8.6 9.9 100 0.0 SE 7 13 4 7 1016.5 1014.2 0.0
03/01:00am 9.8 8.5 9.8 100 0.0 SE 7 9 4 5 1016.6 1014.3 0.0
03/12:30am 9.9 8.2 9.9 100 0.0 SSE 9 11 5 6 1016.8 1014.4 0.0
03/12:00am 9.7 7.6 9.7 100 0.0 SSE 11 15 6 8 1016.8 1014.4 0.0
 
Date/Time
EDT
Temp
°C
App
Temp
°C
Dew
Point
°C
Rel
Hum
%
Delta-T
°C
Wind Press
QNH
hPa
Press
MSL
hPa
Rain since
9am
mm
Dir  Spd
km/h
Gust
km/h
Spd
kts
Gust
kts
02/11:30pm 9.8 7.7 9.8 100 0.0 SSE 11 13 6 7 1016.8 1014.4 0.0
02/11:00pm 9.8 6.9 9.8 100 0.0 SSE 15 20 8 11 1016.5 1014.2 0.0
02/10:30pm 10.2 7.5 10.2 100 0.0 SSE 15 19 8 10 1016.4 1014.1 0.0
02/10:00pm 10.6 8.3 10.6 100 0.0 SSE 13 19 7 10 1016.3 1013.9 0.0
02/09:30pm 11.0 8.5 11.0 100 0.0 SE 15 19 8 10 1016.2 1013.8 0.0
02/09:00pm 11.4 8.6 11.4 100 0.0 SSE 17 20 9 11 1015.7 1013.3 0.0
02/08:30pm 11.8 9.9 11.8 100 0.0 SE 13 17 7 9 1015.5 1013.1 0.0
02/08:00pm 12.3 10.2 12.3 100 0.0 SSE 15 20 8 11 1015.0 1012.6 0.0
02/07:30pm 12.6 10.6 12.6 100 0.0 SSE 15 19 8 10 1014.6 1012.2 0.0
02/07:00pm 13.0 10.6 12.8 99 0.1 SSE 17 22 9 12 1014.0 1011.5 0.0
02/06:30pm 14.1 11.2 13.0 93 0.6 SSE 20 26 11 14 1013.4 1011.0 0.0
02/06:00pm 14.9 11.5 12.4 85 1.4 SSE 22 30 12 16 1013.0 1010.6 0.0
02/05:30pm 16.9 12.6 13.2 79 2.2 SSE 28 35 15 19 1012.4 1010.0 0.0
02/05:00pm 18.8 14.4 14.1 74 2.8 SSE 30 37 16 20 1012.0 1009.6 0.0
02/04:30pm 20.0 16.2 14.6 71 3.3 SSE 28 35 15 19 1011.7 1009.2 0.0
02/04:00pm 20.3 16.8 14.4 69 3.6 SE 26 33 14 18 1011.4 1008.9 0.0
02/03:30pm 20.6 16.7 14.5 68 3.7 SSE 28 35 15 19 1011.2 1008.7 0.0
02/03:00pm 22.3 19.1 15.2 64 4.4 SSE 26 32 14 17 1011.2 1008.7 0.0
02/02:30pm 21.5 17.8 13.9 62 4.6 SE 26 33 14 18 1010.9 1008.5 0.0
02/02:00pm 24.7 23.0 12.6 47 7.2 SSE 13 28 7 15 1010.5 1008.0 0.0
02/01:30pm 27.1 21.9 3.6 22 12.2 WNW 20 39 11 21 1010.3 1007.8 0.0
02/01:00pm 26.6 23.7 4.4 24 11.6 NNW 9 22 5 12 1010.2 1007.7 0.0
02/12:30pm 27.0 23.4 6.9 28 11.0 W 15 24 8 13 1010.3 1007.8 0.0
02/12:00pm 26.0 21.6 5.0 26 11.1 WNW 17 28 9 15 1010.3 1007.8 0.0
02/11:30am 25.5 21.5 6.7 30 10.2 WNW 17 28 9 15 1010.5 1008.0 0.0
02/11:00am 24.4 20.0 6.6 32 9.6 WNW 19 32 10 17 1010.5 1008.0 0.0
02/10:30am 23.7 19.2 6.0 32 9.4 WNW 19 28 10 15 1010.6 1008.2 0.0
02/10:00am 23.3 18.5 5.7 32 9.3 NW 20 32 11 17 1010.3 1007.8 0.0
02/09:30am 22.5 18.7 7.5 38 8.1 WNW 17 24 9 13 1010.3 1007.8 0.0
02/09:00am 21.0 18.1 9.6 48 6.3 NW 15 20 8 11 1010.3 1007.8 0.2
02/08:30am 16.4 15.4 12.2 76 2.4 NNW 9 11 5 6 1010.2 1007.7 0.2
02/08:00am 12.5 12.0 12.5 100 0.0 N 7 9 4 5 1010.0 1007.5 0.2
02/07:30am 10.6 10.1 10.6 100 0.0 NW 4 6 2 3 1009.9 1007.4 0.2
02/07:00am 8.5 7.4 8.5 100 0.0 NW 4 6 2 3 1009.6 1007.2 0.2
02/06:30am 7.3 6.7 7.3 100 0.0 CALM 0 0 0 0 1009.5 1007.1 0.2
02/06:00am 7.1 6.4 7.1 100 0.0 CALM 0 0 0 0 1009.6 1007.2 0.2
02/05:30am 7.1 6.4 7.1 100 0.0 CALM 0 0 0 0 1009.2 1006.7 0.2
02/05:00am 7.9 7.4 7.9 100 0.0 CALM 0 2 0 1 1009.0 1006.5 0.0
02/04:30am 8.1 6.9 8.1 100 0.0 NW 4 6 2 3 1008.8 1006.3 0.0
02/04:00am 8.1 6.9 8.1 100 0.0 NW 4 6 2 3 1008.8 1006.3 0.0
02/03:30am 9.5 8.3 9.5 100 0.0 NW 6 6 3 3 1008.7 1006.2 0.0
02/03:00am 9.7 8.5 9.7 100 0.0 NNW 6 6 3 3 1008.7 1006.2 0.0
02/02:30am 9.7 8.3 9.7 100 0.0 NNW 7 7 4 4 1008.8 1006.3 0.0
02/02:00am 10.8 9.9 10.8 100 0.0 WNW 6 7 3 4 1008.9 1006.4 0.0
02/01:30am 11.7 11.1 11.7 100 0.0 WNW 6 7 3 4 1009.1 1006.6 0.0
02/01:00am 12.0 11.5 12.0 100 0.0 WNW 6 7 3 4 1009.2 1006.7 0.0
02/12:30am 12.7 12.8 12.7 100 0.0 WNW 4 6 2 3 1009.2 1006.7 0.0
02/12:00am 12.4 12.0 12.4 100 0.0 WNW 6 7 3 4 1009.3 1006.8 0.0
 
Date/Time
EDT
Temp
°C
App
Temp
°C
Dew
Point
°C
Rel
Hum
%
Delta-T
°C
Wind Press
QNH
hPa
Press
MSL
hPa
Rain since
9am
mm
Dir  Spd
km/h
Gust
km/h
Spd
kts
Gust
kts
01/11:30pm 13.1 14.1 13.1 100 0.0 CALM 0 0 0 0 1009.4 1006.9 0.0
01/11:00pm 14.3 15.2 14.1 99 0.1 N 2 6 1 3 1009.5 1007.1 0.0
01/10:30pm 14.6 15.3 14.4 99 0.1 N 4 6 2 3 1009.8 1007.3 0.0
01/10:00pm 14.6 15.6 14.4 99 0.1 SW 2 6 1 3 1009.8 1007.3 0.0
01/09:30pm 15.0 15.7 14.4 96 0.4 ENE 4 6 2 3 1009.6 1007.2 0.0
01/09:00pm 16.0 17.4 14.5 91 0.9 CALM 0 0 0 0 1009.6 1007.2 0.0
01/08:30pm 16.2 17.0 14.7 91 0.9 NE 4 7 2 4 1009.4 1006.9 0.0
01/08:00pm 16.3 16.3 14.3 88 1.2 ENE 7 9 4 5 1009.1 1006.6 0.0
01/07:30pm 17.8 17.5 14.3 80 2.1 ENE 9 17 5 9 1009.0 1006.5 0.0
01/07:00pm 18.8 18.2 14.5 76 2.6 ENE 11 19 6 10 1008.9 1006.4 0.0
01/06:30pm 18.7 17.6 14.2 75 2.7 ENE 13 19 7 10 1008.5 1006.0 0.0
01/06:00pm 20.3 18.9 14.4 69 3.6 ENE 15 20 8 11 1008.4 1005.9 0.0
01/05:30pm 19.6 17.5 14.8 74 2.9 E 19 24 10 13 1008.0 1005.5 0.0
01/05:00pm 21.4 20.3 14.3 64 4.3 ENE 13 22 7 12 1007.8 1005.3 0.0
01/04:30pm 21.7 20.2 14.1 62 4.6 ENE 15 24 8 13 1007.8 1005.3 0.0
01/04:00pm 22.5 21.0 13.0 55 5.7 SE 13 19 7 10 1007.8 1005.3 0.0
01/03:30pm 22.1 19.9 15.0 64 4.4 SSE 20 28 11 15 1007.9 1005.4 0.0
01/03:00pm 21.2 19.5 13.6 62 4.5 SE 15 24 8 13 1008.0 1005.5 0.0
01/02:30pm 23.0 21.6 14.6 59 5.1 SE 15 22 8 12 1008.1 1005.6 0.0
01/02:00pm 20.9 18.8 14.8 68 3.7 SE 19 24 10 13 1008.2 1005.7 0.0
01/01:30pm 21.5 19.9 12.9 58 5.1 SSW 13 20 7 11 1008.2 1005.7 0.0
01/01:00pm 21.4 19.3 9.6 47 6.6 SW 11 17 6 9 1008.1 1005.6 0.0
01/12:30pm 22.8 20.1 8.9 41 7.7 W 13 20 7 11 1008.0 1005.5 0.0
01/12:00pm 21.6 19.1 8.1 42 7.3 NW 11 15 6 8 1008.1 1005.6 0.0
01/11:30am 22.4 18.6 9.2 43 7.3 NW 19 28 10 15 1008.1 1005.6 0.0
01/11:00am 22.1 17.8 9.3 44 7.1 NW 22 33 12 18 1008.4 1005.9 0.0
01/10:30am 21.2 17.1 8.5 44 6.9 WNW 20 39 11 21 1008.5 1006.7 0.0
01/10:00am 20.4 16.9 10.2 52 5.7 NW 19 26 10 14 1008.8 1007.0 0.0
01/09:30am 19.8 18.0 13.3 66 3.8 NNW 15 26 8 14 1008.8 1007.0 0.0
01/09:00am 18.2 17.2 13.5 74 2.8 NW 11 15 6 8 1009.1 1007.3 0.2
01/08:30am 16.9 16.5 14.0 83 1.7 N 9 15 5 8 1009.1 1007.3 0.2
01/08:00am 16.0 17.0 14.2 89 1.1 W 2 6 1 3 1009.1 1007.3 0.2
01/07:30am 14.8 16.4 14.8 100 0.0 CALM 0 0 0 0 1009.1 1007.3 0.2
01/07:00am 13.8 14.2 13.8 100 0.0 NNE 4 9 2 5 1009.1 1007.3 0.2
01/06:30am 13.9 14.8 13.9 100 0.0 E 2 4 1 2 1009.0 1007.2 0.2
01/06:00am 13.8 13.9 13.8 100 0.0 ESE 6 7 3 4 1008.6 1006.8 0.2
01/05:30am 14.0 13.6 14.0 100 0.0 SSE 9 11 5 6 1008.8 1007.0 0.2
01/05:00am 14.1 14.3 14.1 100 0.0 SSE 6 6 3 3 1008.8 1007.0 0.2
01/04:30am 14.1 14.1 14.1 100 0.0 S 7 9 4 5 1008.4 1006.6 0.2
01/04:00am 14.2 13.8 14.2 100 0.0 SSE 9 13 5 7 1008.5 1006.7 0.2
01/03:30am 14.2 14.4 14.2 100 0.0 S 6 9 3 5 1008.6 1006.8 0.2
01/03:00am 14.2 13.5 14.2 100 0.0 SE 11 15 6 8 1008.4 1006.6 0.2
01/02:30am 14.4 14.5 14.4 100 0.0 SE 7 11 4 6 1008.9 1007.1 0.2
01/02:00am 14.6 13.6 14.6 100 0.0 SE 13 20 7 11 1008.7 1006.9 0.2
01/01:30am 14.9 15.4 14.9 100 0.0 SE 6 7 3 4 1009.4 1007.7 0.2
01/01:00am 14.8 15.6 14.8 100 0.0 SSE 4 6 2 3 1009.9 1008.1 0.2
01/12:30am 14.7 15.5 14.7 100 0.0 E 4 6 2 3 1009.9 1008.1 0.2
01/12:00am 14.7 15.5 14.7 100 0.0 NNE 4 6 2 3 1010.0 1008.2 0.2
 
Date/Time
EDT
Temp
°C
App
Temp
°C
Dew
Point
°C
Rel
Hum
%
Delta-T
°C
Wind Press
QNH
hPa
Press
MSL
hPa
Rain since
9am
mm
Dir  Spd
km/h
Gust
km/h
Spd
kts
Gust
kts
30/11:30pm 14.5 14.8 14.5 100 0.0 NE 6 9 3 5 1010.2 1008.4 0.2
30/11:00pm 14.5 14.7 14.3 99 0.1 NE 6 13 3 7 1010.1 1008.3 0.2
30/10:30pm 14.8 15.0 14.6 99 0.1 NNE 7 15 4 8 1010.4 1008.7 0.2
30/10:00pm 15.0 14.5 15.0 100 0.0 NE 11 15 6 8 1010.2 1008.4 0.2
30/09:30pm 14.9 13.6 14.9 100 0.0 ENE 15 24 8 13 1010.0 1008.2 0.2
30/09:00pm 14.7 14.9 14.7 100 0.0 ENE 7 15 4 8 1009.9 1008.1 0.2

Other Formats:

Comma delimited format used in spreadsheet applications
http://www.bom.gov.au/fwo/IDN60801/IDN60801.94929.axf

JavaScript Object Notation format (JSON) in row-major order
http://www.bom.gov.au/fwo/IDN60801/IDN60801.94929.json